Time;durP1;ratioP1;P1;durP2;ratioP2;P2;SDS_P1;SDS_P2;PMS_P1;PMS_P2;Temp;Humidity;BMP_temperature;BMP_pressure;BME280_temperature;BME280_humidity;BME280_pressure;Samples;Min_cycle;Max_cycle;Signal;HPM_P1;HPM_P2
2021/04/03 00:00:57;;;;;;;29.07;15.18;;;;;;;5.75;51.12;99763.55;147546;1147;104474;-71
2021/04/03 00:04:00;;;;;;;95.03;54.03;;;;;;;5.77;51.53;99764.26;147633;1147;104465;-70
2021/04/03 00:07:05;;;;;;;66.87;31.23;;;;;;;5.77;50.96;99764.26;147760;1147;104541;-70
2021/04/03 00:10:14;;;;;;;32.30;15.48;;;;;;;5.78;51.51;99765.12;147707;1147;104547;-70
2021/04/03 00:13:20;;;;;;;23.00;12.87;;;;;;;5.77;51.18;99763.42;147513;1147;104474;-70
2021/04/03 00:16:23;;;;;;;19.98;11.45;;;;;;;5.74;51.27;99769.02;147389;1147;104473;-71
2021/04/03 00:19:26;;;;;;;20.23;11.73;;;;;;;5.71;51.61;99768.28;147692;1147;104438;-73
2021/04/03 00:22:29;;;;;;;19.23;11.25;;;;;;;5.69;51.84;99761.45;147594;1147;104558;-70
2021/04/03 00:25:33;;;;;;;19.70;10.65;;;;;;;5.67;51.70;99766.05;147704;1147;104460;-69
2021/04/03 00:28:36;;;;;;;20.87;11.63;;;;;;;5.64;51.67;99763.65;147725;1147;104553;-69
2021/04/03 00:31:39;;;;;;;18.62;10.90;;;;;;;5.62;51.48;99763.81;147653;1147;104549;-69
2021/04/03 00:34:42;;;;;;;21.82;11.22;;;;;;;5.61;51.49;99758.64;147701;1148;104573;-72
2021/04/03 00:37:46;;;;;;;18.37;10.85;;;;;;;5.58;51.60;99758.89;147675;1148;104513;-69
2021/04/03 00:40:51;;;;;;;22.93;11.45;;;;;;;5.56;51.79;99755.55;147275;1147;104503;-72
2021/04/03 00:43:54;;;;;;;21.90;11.13;;;;;;;5.56;52.34;99761.67;147262;1146;104452;-69
2021/04/03 00:46:57;;;;;;;21.23;11.05;;;;;;;5.56;52.02;99771.42;147108;1148;105746;-69
2021/04/03 00:50:00;;;;;;;21.30;11.22;;;;;;;5.51;52.49;99764.73;147371;1147;104470;-70
2021/04/03 00:53:05;;;;;;;22.22;12.13;;;;;;;5.47;52.58;99762.49;147628;1147;104551;-69
2021/04/03 00:56:10;;;;;;;23.45;12.37;;;;;;;5.48;52.79;99761.50;147610;1147;104537;-72
2021/04/03 00:59:13;;;;;;;20.72;12.40;;;;;;;5.50;52.29;99765.72;147639;1147;104934;-71
2021/04/03 01:02:18;;;;;;;21.85;11.78;;;;;;;5.49;52.56;99757.90;147450;1146;104999;-70
2021/04/03 01:05:23;;;;;;;24.82;13.35;;;;;;;5.54;52.68;99760.14;147162;1147;104553;-72
2021/04/03 01:08:28;;;;;;;22.93;12.80;;;;;;;5.53;53.03;99759.31;147286;1147;104617;-69
2021/04/03 01:11:39;;;;;;;21.60;12.18;;;;;;;5.49;52.80;99750.80;147421;1146;104553;-69
2021/04/03 01:14:52;;;;;;;22.13;12.50;;;;;;;5.53;53.19;99753.19;147237;1148;104458;-72
2021/04/03 01:18:03;;;;;;;24.98;13.25;;;;;;;5.51;53.15;99754.14;147632;1147;104886;-71
2021/04/03 01:21:14;;;;;;;24.00;12.95;;;;;;;5.53;53.36;99753.19;147868;1147;104550;-70
2021/04/03 01:24:36;;;;;;;24.20;13.00;;;;;;;5.54;53.54;99750.38;147307;1147;104614;-70
2021/04/03 01:27:53;;;;;;;22.63;12.47;;;;;;;5.54;53.83;99758.32;147171;1147;104474;-69
2021/04/03 01:30:58;;;;;;;23.18;12.47;;;;;;;5.49;53.33;99756.09;147332;1147;104464;-70
2021/04/03 01:34:04;;;;;;;23.07;12.82;;;;;;;5.48;53.48;99754.39;147636;1148;104500;-70
2021/04/03 01:37:12;;;;;;;24.32;13.03;;;;;;;5.48;54.37;99758.86;147567;1147;104517;-70
2021/04/03 01:40:20;;;;;;;23.27;12.80;;;;;;;5.43;53.65;99753.97;147193;1147;104458;-72
2021/04/03 01:43:27;;;;;;;22.53;13.13;;;;;;;5.35;54.11;99759.09;147203;1147;104526;-70
2021/04/03 01:46:36;;;;;;;22.22;12.82;;;;;;;5.32;54.01;99759.34;147128;1146;104560;-70
2021/04/03 01:49:43;;;;;;;23.55;12.73;;;;;;;5.30;54.28;99766.58;147166;1147;104452;-70
2021/04/03 01:52:49;;;;;;;23.85;13.00;;;;;;;5.26;54.41;99766.00;147220;1147;104455;-69
2021/04/03 01:55:56;;;;;;;26.07;13.50;;;;;;;5.24;54.36;99760.00;147635;1147;104556;-69
2021/04/03 01:59:01;;;;;;;25.57;13.53;;;;;;;5.22;54.53;99759.30;147276;1147;104581;-71
2021/04/03 02:02:07;;;;;;;24.53;13.20;;;;;;;5.17;54.67;99760.66;147140;1147;104569;-71
2021/04/03 02:05:13;;;;;;;30.85;14.80;;;;;;;5.11;54.97;99759.37;147264;1146;104499;-69
2021/04/03 02:08:19;;;;;;;34.55;16.50;;;;;;;5.06;54.73;99756.27;147090;1147;104473;-69
2021/04/03 02:11:34;;;;;;;29.17;15.10;;;;;;;5.07;54.87;99756.14;147267;1147;104563;-71
2021/04/03 02:14:40;;;;;;;29.25;15.40;;;;;;;5.10;55.03;99760.36;147314;1147;104553;-69
2021/04/03 02:17:47;;;;;;;27.45;13.65;;;;;;;5.11;55.49;99765.48;147124;1147;104953;-69
2021/04/03 02:20:53;;;;;;;33.08;16.70;;;;;;;5.11;54.75;99762.02;147402;1147;104534;-70
2021/04/03 02:23:57;;;;;;;31.57;15.85;;;;;;;5.16;54.50;99758.97;147195;1147;104473;-70
2021/04/03 02:27:02;;;;;;;25.62;13.95;;;;;;;5.20;55.13;99770.98;147047;1147;104630;-72
2021/04/03 02:30:15;;;;;;;27.35;15.10;;;;;;;5.24;55.07;99767.11;147287;1147;104866;-71
2021/04/03 02:33:19;;;;;;;26.55;12.53;;;;;;;5.30;55.44;99756.00;147321;1148;104509;-71
2021/04/03 02:36:23;;;;;;;23.73;12.78;;;;;;;5.34;55.13;99757.41;147378;1147;104511;-69
2021/04/03 02:39:26;;;;;;;22.82;12.43;;;;;;;5.37;54.88;99757.16;147220;1147;104546;-69
2021/04/03 02:42:31;;;;;;;24.90;14.10;;;;;;;5.41;55.70;99753.27;147084;1147;104636;-70
2021/04/03 02:45:39;;;;;;;53.33;28.77;;;;;;;5.41;55.54;99760.34;147452;1147;104550;-70
2021/04/03 02:48:48;;;;;;;42.10;20.75;;;;;;;5.42;55.55;99765.52;147616;1147;104451;-70
2021/04/03 02:51:56;;;;;;;23.10;13.43;;;;;;;5.46;55.82;99761.62;147563;1147;104549;-70
2021/04/03 02:55:01;;;;;;;26.07;13.90;;;;;;;5.40;55.51;99763.98;147537;1147;104636;-69
2021/04/03 02:58:06;;;;;;;22.62;12.90;;;;;;;5.33;55.70;99766.30;147645;1147;104642;-70
2021/04/03 03:01:14;;;;;;;19.45;11.20;;;;;;;5.35;55.37;99764.39;147625;1147;104551;-70
2021/04/03 03:04:22;;;;;;;20.32;10.25;;;;;;;5.42;55.87;99767.33;147737;1146;104514;-73
2021/04/03 03:07:28;;;;;;;18.45;10.32;;;;;;;5.43;55.50;99764.56;147779;1147;105749;-71
2021/04/03 03:10:33;;;;;;;21.73;11.47;;;;;;;5.46;56.13;99766.09;147492;1147;104483;-70
2021/04/03 03:13:38;;;;;;;17.15;10.30;;;;;;;5.36;56.47;99773.16;147559;1146;104911;-73
2021/04/03 03:16:45;;;;;;;16.80;9.25;;;;;;;5.30;56.23;99771.87;147655;1147;104552;-69
2021/04/03 03:19:49;;;;;;;16.65;9.63;;;;;;;5.28;56.50;99776.45;147428;1147;104471;-69
2021/04/03 03:22:53;;;;;;;15.65;9.23;;;;;;;5.24;56.41;99767.11;147309;1147;104547;-69
2021/04/03 03:25:59;;;;;;;15.48;9.30;;;;;;;5.28;57.13;99769.35;147499;1147;104470;-70
2021/04/03 03:29:07;;;;;;;14.90;8.88;;;;;;;5.24;57.14;99773.23;147620;1147;104630;-73
2021/04/03 03:32:11;;;;;;;15.63;8.08;;;;;;;5.17;57.10;99784.46;147596;1147;104541;-73
2021/04/03 03:35:21;;;;;;;13.38;8.08;;;;;;;5.15;57.48;99781.94;147638;1147;104582;-71
2021/04/03 03:38:26;;;;;;;13.98;8.15;;;;;;;5.17;57.68;99781.81;147605;1147;104607;-70
2021/04/03 03:41:31;;;;;;;10.72;6.08;;;;;;;5.12;57.90;99779.58;147790;1147;104495;-70
2021/04/03 03:44:34;;;;;;;11.22;6.97;;;;;;;5.11;57.65;99777.88;147731;1147;104606;-69
2021/04/03 03:47:39;;;;;;;9.75;5.72;;;;;;;5.20;57.88;99781.57;147645;1147;104844;-73
2021/04/03 03:50:43;;;;;;;8.10;4.90;;;;;;;5.25;57.82;99795.22;147733;1146;104553;-70
2021/04/03 03:53:46;;;;;;;10.68;4.42;;;;;;;5.28;57.99;99792.33;147723;1148;104577;-70
2021/04/03 03:56:51;;;;;;;8.53;4.73;;;;;;;5.29;58.14;99796.63;147648;1146;104460;-69
2021/04/03 03:59:55;;;;;;;8.20;5.08;;;;;;;5.28;58.17;99797.62;147613;1147;104601;-70
2021/04/03 04:02:59;;;;;;;6.30;4.27;;;;;;;5.28;58.27;99810.84;147697;1147;104547;-71
2021/04/03 04:06:04;;;;;;;5.40;3.35;;;;;;;5.20;59.67;99819.42;147699;1148;104464;-73
2021/04/03 04:09:09;;;;;;;6.33;3.30;;;;;;;5.01;59.63;99809.55;147360;1147;104557;-68
2021/04/03 04:12:17;;;;;;;5.80;3.20;;;;;;;4.87;60.93;99813.35;147276;1147;104540;-71
2021/04/03 04:15:26;;;;;;;5.72;3.10;;;;;;;4.72;61.24;99814.62;147713;1147;104614;-71
2021/04/03 04:18:29;;;;;;;5.00;2.90;;;;;;;4.59;60.79;99820.06;147772;1146;104503;-71
2021/04/03 04:21:34;;;;;;;5.33;3.10;;;;;;;4.47;61.21;99829.00;147728;1147;104553;-69
2021/04/03 04:24:38;;;;;;;5.47;3.00;;;;;;;4.42;63.22;99839.92;147662;1147;104482;-69
2021/04/03 04:27:44;;;;;;;5.97;3.00;;;;;;;4.30;62.14;99847.03;147673;1147;104475;-66
2021/04/03 04:30:49;;;;;;;5.80;2.65;;;;;;;4.20;63.47;99830.25;147664;1147;104627;-72
2021/04/03 04:33:53;;;;;;;5.17;2.95;;;;;;;4.16;62.37;99844.67;147527;1147;104650;-69
2021/04/03 04:36:57;;;;;;;4.87;2.90;;;;;;;4.22;61.16;99841.53;147754;1147;104534;-70
2021/04/03 04:40:07;;;;;;;5.53;3.08;;;;;;;4.23;63.64;99845.01;147715;1147;104480;-70
2021/04/03 04:43:11;;;;;;;5.72;3.20;;;;;;;4.13;62.72;99844.91;147762;1147;104479;-70
2021/04/03 04:46:17;;;;;;;4.47;2.80;;;;;;;4.11;62.17;99852.11;147693;1147;104617;-70
2021/04/03 04:49:26;;;;;;;3.90;2.50;;;;;;;4.07;62.59;99855.95;147622;1147;104563;-70
2021/04/03 04:52:30;;;;;;;4.33;3.40;;;;;;;4.01;63.94;99856.45;147699;1146;104493;-72
2021/04/03 04:55:35;;;;;;;5.10;3.20;;;;;;;3.99;62.73;99855.73;147738;1147;104593;-70
2021/04/03 04:58:38;;;;;;;6.15;3.47;;;;;;;3.87;61.93;99857.53;147675;1147;104559;-69
2021/04/03 05:01:42;;;;;;;4.78;3.30;;;;;;;3.78;62.64;99866.16;147592;1147;104627;-68
2021/04/03 05:04:46;;;;;;;6.12;3.52;;;;;;;3.67;64.18;99866.98;147721;1146;104660;-69
2021/04/03 05:07:49;;;;;;;5.07;3.30;;;;;;;3.54;67.97;99872.34;147516;1147;104453;-69
2021/04/03 05:10:52;;;;;;;4.90;3.02;;;;;;;3.47;63.63;99879.91;147677;1147;104499;-71
2021/04/03 05:13:55;;;;;;;5.15;3.33;;;;;;;3.47;65.10;99879.91;147560;1147;104559;-67
2021/04/03 05:16:59;;;;;;;5.28;3.50;;;;;;;3.50;63.68;99882.31;147637;1147;104624;-67
2021/04/03 05:20:02;;;;;;;4.97;3.37;;;;;;;3.53;62.69;99878.59;147622;1147;104553;-66
2021/04/03 05:23:05;;;;;;;4.97;3.62;;;;;;;3.49;62.84;99885.90;147600;1148;104553;-66
2021/04/03 05:26:09;;;;;;;5.53;3.90;;;;;;;3.46;64.01;99883.48;147565;1147;105766;-70
2021/04/03 05:29:12;;;;;;;6.60;4.08;;;;;;;3.47;62.52;99889.63;147720;1147;104492;-73
2021/04/03 05:32:15;;;;;;;4.47;3.60;;;;;;;3.45;63.00;99892.37;147721;1146;104655;-69
2021/04/03 05:35:18;;;;;;;6.70;4.47;;;;;;;3.44;64.18;99887.20;147657;1147;104633;-73
2021/04/03 05:38:21;;;;;;;7.28;4.67;;;;;;;3.44;64.35;99893.31;147642;1147;104912;-70
2021/04/03 05:41:25;;;;;;;8.63;5.40;;;;;;;3.49;63.93;99891.17;147707;1147;104560;-70
2021/04/03 05:44:30;;;;;;;12.07;7.57;;;;;;;3.51;63.73;99891.06;147670;1147;104469;-71
2021/04/03 05:47:35;;;;;;;10.93;7.37;;;;;;;3.58;62.84;99891.42;147694;1147;104604;-68
2021/04/03 05:50:38;;;;;;;10.85;7.45;;;;;;;3.66;63.29;99899.61;147656;1147;104605;-72
2021/04/03 05:53:42;;;;;;;10.88;7.12;;;;;;;3.81;63.48;99898.44;147625;1147;104535;-69
2021/04/03 05:56:45;;;;;;;10.03;7.53;;;;;;;3.93;63.50;99902.75;147481;1147;104476;-70
2021/04/03 05:59:49;;;;;;;10.90;8.68;;;;;;;3.88;63.61;99904.89;147469;1147;104550;-70
2021/04/03 06:02:53;;;;;;;10.18;7.10;;;;;;;3.89;63.98;99911.88;147291;1147;104614;-70
2021/04/03 06:05:56;;;;;;;13.45;7.90;;;;;;;3.85;64.88;99910.43;147706;1147;104452;-70
2021/04/03 06:09:00;;;;;;;10.37;6.97;;;;;;;3.84;63.12;99902.63;147647;1148;104526;-69
2021/04/03 06:12:04;;;;;;;10.88;6.92;;;;;;;3.84;64.00;99907.91;147664;1147;104506;-71
2021/04/03 06:15:12;;;;;;;11.73;6.83;;;;;;;3.90;64.36;99905.62;147487;1145;104569;-70
2021/04/03 06:18:21;;;;;;;12.82;7.10;;;;;;;4.02;64.65;99895.06;147205;1146;104546;-71
2021/04/03 06:21:27;;;;;;;12.25;7.50;;;;;;;4.21;64.95;99905.86;147594;1145;104546;-73
2021/04/03 06:24:32;;;;;;;13.43;7.90;;;;;;;4.31;64.55;99906.83;147596;1146;104454;-70
2021/04/03 06:27:35;;;;;;;14.87;8.48;;;;;;;4.41;64.60;99904.30;147867;1147;104603;-69
2021/04/03 06:30:47;;;;;;;13.63;7.60;;;;;;;4.50;65.39;99905.35;147762;1147;104552;-69
2021/04/03 06:33:51;;;;;;;14.73;8.60;;;;;;;4.71;65.09;99908.07;147799;1146;104633;-70
2021/04/03 06:36:55;;;;;;;13.23;7.73;;;;;;;4.82;64.88;99904.57;147650;1147;104470;-69
2021/04/03 06:39:59;;;;;;;11.63;7.85;;;;;;;4.86;64.58;99906.83;147673;1147;104856;-70
2021/04/03 06:43:03;;;;;;;13.65;8.25;;;;;;;4.86;65.02;99906.00;147608;1147;104468;-73
2021/04/03 06:46:24;;;;;;;15.83;8.78;;;;;;;4.89;64.78;99914.52;147608;1148;104545;-70
2021/04/03 06:49:30;;;;;;;12.07;7.95;;;;;;;5.02;64.29;99916.16;147697;1147;104526;-69
2021/04/03 06:52:35;;;;;;;14.53;8.20;;;;;;;5.04;66.86;99923.02;147983;1147;104488;-71
2021/04/03 06:55:40;;;;;;;14.20;8.80;;;;;;;5.07;64.73;99920.09;147673;1147;104471;-73
2021/04/03 06:58:45;;;;;;;15.68;9.33;;;;;;;5.04;66.45;99925.66;147741;1147;104560;-72
2021/04/03 07:01:51;;;;;;;15.43;8.75;;;;;;;4.95;65.32;99930.86;147819;1147;104495;-70
2021/04/03 07:04:55;;;;;;;15.78;10.35;;;;;;;4.94;65.23;99935.28;147688;1147;104544;-71
2021/04/03 07:08:01;;;;;;;16.93;10.78;;;;;;;4.87;65.54;99950.82;147786;1147;104508;-70
2021/04/03 07:11:07;;;;;;;18.15;11.55;;;;;;;4.90;64.98;99941.80;147418;1147;104981;-70
2021/04/03 07:14:11;;;;;;;18.75;12.40;;;;;;;5.04;64.79;99945.95;147695;1147;104589;-73
2021/04/03 07:17:17;;;;;;;16.45;10.13;;;;;;;5.17;64.59;99953.73;147765;1146;104544;-72
2021/04/03 07:20:22;;;;;;;13.40;7.42;;;;;;;5.27;66.49;99952.00;148661;1147;104916;-72
2021/04/03 07:23:25;;;;;;;11.25;7.87;;;;;;;5.25;65.77;99956.58;147929;1148;104819;-72
2021/04/03 07:26:30;;;;;;;11.60;7.60;;;;;;;5.34;65.49;99961.12;147882;1147;104532;-71
2021/04/03 07:29:54;;;;;;;11.10;7.87;;;;;;;5.35;65.16;99970.75;147782;1147;104979;-72
2021/04/03 07:33:07;;;;;;;11.27;7.63;;;;;;;5.28;66.71;99980.98;147735;1148;104667;-71
2021/04/03 07:36:11;;;;;;;12.00;8.10;;;;;;;5.17;65.84;99985.47;147877;1146;104553;-73
2021/04/03 07:39:37;;;;;;;11.97;7.72;;;;;;;5.11;65.36;99990.28;147835;1147;104543;-73
2021/04/03 07:42:42;;;;;;;13.10;8.68;;;;;;;5.14;65.04;99994.50;147866;1147;104572;-73
2021/04/03 07:45:47;;;;;;;14.00;8.68;;;;;;;5.11;65.43;99998.22;147756;1148;104478;-73
2021/04/03 07:48:55;;;;;;;14.83;8.90;;;;;;;5.09;65.67;100002.80;147855;1147;104528;-71
2021/04/03 07:51:58;;;;;;;16.48;9.40;;;;;;;5.22;66.03;100009.75;147876;1146;104539;-75
2021/04/03 07:55:35;;;;;;;42.73;26.10;;;;;;;5.29;64.82;100008.27;147722;1146;104454;-73
2021/04/03 07:58:46;;;;;;;15.28;8.90;;;;;;;5.54;64.67;100011.55;147779;1147;104531;-72
2021/04/03 08:01:50;;;;;;;13.72;8.63;;;;;;;5.50;64.83;100016.25;147588;1147;104547;-71
2021/04/03 08:04:56;;;;;;;14.43;9.00;;;;;;;5.49;65.32;100019.87;147149;1146;104538;-72
2021/04/03 08:07:59;;;;;;;12.00;7.47;;;;;;;5.55;64.70;100031.77;147639;1147;104544;-72
2021/04/03 08:11:11;;;;;;;17.55;9.93;;;;;;;5.70;64.55;100033.16;147871;1146;104513;-75
2021/04/03 08:14:16;;;;;;;13.70;8.65;;;;;;;5.88;64.29;100031.59;147972;1146;104544;-72
2021/04/03 08:17:23;;;;;;;12.45;7.75;;;;;;;5.96;64.26;100038.94;147862;1147;104546;-72
2021/04/03 08:20:26;;;;;;;12.50;7.67;;;;;;;6.18;64.17;100043.28;147842;1148;104489;-73
2021/04/03 08:23:35;;;;;;;13.58;7.83;;;;;;;6.35;63.28;100041.84;147773;1146;104426;-77
2021/04/03 08:26:40;;;;;;;13.18;7.62;;;;;;;6.59;63.46;100046.83;147727;1148;104502;-72
2021/04/03 08:29:43;;;;;;;10.43;5.87;;;;;;;6.63;62.12;100053.55;147721;1147;104547;-71
2021/04/03 08:33:11;;;;;;;9.70;5.97;;;;;;;6.51;61.44;100064.39;147380;1147;104555;-71
2021/04/03 08:36:17;;;;;;;14.87;9.75;;;;;;;6.58;62.86;100055.78;147844;1146;104540;-71
2021/04/03 08:39:22;;;;;;;14.73;9.37;;;;;;;6.72;61.39;100059.02;147853;1147;104606;-71
2021/04/03 08:42:25;;;;;;;10.20;5.53;;;;;;;6.74;62.10;100062.41;147828;1147;104550;-72
2021/04/03 08:45:35;;;;;;;8.20;5.37;;;;;;;6.65;60.70;100072.81;147776;1147;104468;-71
2021/04/03 08:48:39;;;;;;;12.43;8.70;;;;;;;6.56;59.49;100080.72;147861;1147;104451;-72
2021/04/03 08:51:43;;;;;;;20.12;15.72;;;;;;;6.49;61.26;100077.77;147868;1147;104583;-72
2021/04/03 08:54:46;;;;;;;13.70;10.87;;;;;;;6.54;60.03;100074.70;147642;1147;104961;-73
2021/04/03 08:57:52;;;;;;;9.05;7.03;;;;;;;6.68;59.93;100074.37;147856;1147;104480;-69
2021/04/03 09:00:55;;;;;;;7.30;5.60;;;;;;;6.96;61.07;100070.14;147756;1147;105318;-70
2021/04/03 09:04:04;;;;;;;8.00;6.30;;;;;;;7.16;59.75;100078.16;147765;1147;104535;-71
2021/04/03 09:07:08;;;;;;;6.83;4.97;;;;;;;7.04;60.59;100072.13;147781;1147;104522;-70
2021/04/03 09:10:14;;;;;;;13.40;7.22;;;;;;;7.15;60.07;100085.29;147674;1147;104592;-73
2021/04/03 09:13:17;;;;;;;8.63;5.70;;;;;;;6.95;58.35;100084.40;147684;1147;104461;-75
2021/04/03 09:16:20;;;;;;;7.30;5.45;;;;;;;6.84;59.48;100087.97;147568;1147;104495;-71
2021/04/03 09:19:28;;;;;;;10.83;7.37;;;;;;;6.99;60.40;100080.50;147637;1147;104457;-71
2021/04/03 09:22:37;;;;;;;8.78;6.67;;;;;;;7.31;59.43;100081.28;147774;1147;104551;-71
2021/04/03 09:25:41;;;;;;;9.55;5.60;;;;;;;7.66;59.48;100091.42;147392;1147;104626;-72
2021/04/03 09:28:45;;;;;;;6.17;4.50;;;;;;;7.59;58.01;100093.77;147786;1146;104473;-72
2021/04/03 09:31:49;;;;;;;5.97;4.30;;;;;;;7.54;59.12;100100.47;147740;1147;104546;-72
2021/04/03 09:35:03;;;;;;;9.38;5.40;;;;;;;7.52;58.43;100097.11;147701;1147;104468;-72
2021/04/03 09:38:06;;;;;;;6.87;4.65;;;;;;;7.56;56.63;100109.13;147822;1147;104449;-72
2021/04/03 09:41:24;;;;;;;8.43;5.47;;;;;;;7.48;58.48;100097.38;147802;1148;104603;-72
2021/04/03 09:44:27;;;;;;;9.30;5.57;;;;;;;7.37;57.71;100097.52;147815;1147;104552;-72
2021/04/03 09:47:30;;;;;;;6.40;5.10;;;;;;;7.23;56.98;100109.33;147739;1147;104441;-71
2021/04/03 09:50:34;;;;;;;6.70;4.30;;;;;;;7.25;56.59;100110.03;147748;1147;104533;-72
2021/04/03 09:53:38;;;;;;;6.60;5.10;;;;;;;7.22;57.09;100112.98;147868;1147;104547;-71
2021/04/03 09:56:41;;;;;;;5.47;3.92;;;;;;;7.14;57.13;100110.16;147783;1148;104548;-73
2021/04/03 09:59:44;;;;;;;4.78;3.70;;;;;;;7.18;57.19;100105.40;147393;1147;104479;-73
2021/04/03 10:02:47;;;;;;;5.07;3.90;;;;;;;7.35;54.51;100106.57;147718;1148;104572;-72
2021/04/03 10:05:51;;;;;;;5.15;3.52;;;;;;;7.66;57.89;100100.22;147426;1146;104544;-72
2021/04/03 10:08:54;;;;;;;4.13;3.00;;;;;;;8.04;55.86;100100.35;149553;1148;104463;-73
2021/04/03 10:11:58;;;;;;;4.55;3.83;;;;;;;8.24;56.23;100102.03;147760;1147;104537;-73
2021/04/03 10:15:01;;;;;;;5.42;3.25;;;;;;;8.17;52.54;100111.54;147737;1148;104512;-75
2021/04/03 10:18:05;;;;;;;4.83;3.37;;;;;;;8.17;54.90;100102.73;147588;1147;104466;-75
2021/04/03 10:21:09;;;;;;;6.67;4.50;;;;;;;8.26;54.63;100108.03;147264;1147;104462;-72
2021/04/03 10:24:13;;;;;;;6.60;4.35;;;;;;;8.35;53.02;100090.41;147312;1148;104559;-75
2021/04/03 10:27:16;;;;;;;5.25;3.80;;;;;;;8.26;55.13;100104.55;147509;1147;104641;-75
2021/04/03 10:30:21;;;;;;;8.07;4.30;;;;;;;8.19;53.66;100106.09;147287;1147;104425;-75
2021/04/03 10:33:24;;;;;;;5.90;3.92;;;;;;;8.05;51.92;100107.36;147275;1147;104569;-75
2021/04/03 10:36:27;;;;;;;6.67;4.50;;;;;;;8.06;53.85;100103.70;147441;1147;104536;-75
2021/04/03 10:39:31;;;;;;;5.10;3.27;;;;;;;8.16;51.83;100101.05;147572;1147;104559;-75
2021/04/03 10:42:34;;;;;;;4.37;2.80;;;;;;;8.19;50.93;100106.92;147492;1146;104529;-76
2021/04/03 10:45:37;;;;;;;3.58;2.40;;;;;;;8.39;50.76;100102.44;147629;1147;104546;-75
2021/04/03 10:48:40;;;;;;;2.53;1.97;;;;;;;8.68;49.28;100100.70;147609;1147;104479;-75
2021/04/03 10:51:43;;;;;;;5.35;3.33;;;;;;;8.89;51.73;100095.17;147658;1146;104473;-75
2021/04/03 10:54:47;;;;;;;4.03;2.62;;;;;;;8.90;50.05;100097.69;147404;1147;104863;-75
2021/04/03 10:57:50;;;;;;;4.33;2.47;;;;;;;8.93;51.97;100091.23;147445;1147;104933;-75
2021/04/03 11:00:53;;;;;;;5.37;2.40;;;;;;;8.88;49.80;100096.17;147414;1148;104452;-75
2021/04/03 11:03:56;;;;;;;3.75;2.35;;;;;;;8.83;49.58;100088.61;147318;1147;104500;-75
2021/04/03 11:07:01;;;;;;;5.35;2.90;;;;;;;8.70;51.36;100086.29;147370;1147;104473;-74
2021/04/03 11:10:05;;;;;;;2.95;2.08;;;;;;;8.58;48.36;100090.09;147456;1148;104585;-75
2021/04/03 11:13:09;;;;;;;3.42;2.30;;;;;;;8.68;50.56;100082.94;147470;1146;104643;-75
2021/04/03 11:16:12;;;;;;;10.30;6.37;;;;;;;8.98;48.92;100076.50;147389;1146;104460;-75
2021/04/03 11:19:15;;;;;;;6.30;4.20;;;;;;;9.40;50.38;100078.66;147370;1146;104489;-75
2021/04/03 11:22:18;;;;;;;3.45;2.60;;;;;;;9.61;50.05;100073.05;147493;1147;104596;-74
2021/04/03 11:25:21;;;;;;;2.45;1.80;;;;;;;9.70;48.90;100081.97;147390;1146;104470;-74
2021/04/03 11:28:24;;;;;;;4.05;2.83;;;;;;;9.47;48.62;100086.03;147306;1147;104470;-75
2021/04/03 11:31:28;;;;;;;4.28;2.77;;;;;;;9.16;47.00;100094.34;147409;1147;104471;-75
2021/04/03 11:34:31;;;;;;;4.03;2.90;;;;;;;8.67;46.95;100109.67;147337;1147;104544;-74
2021/04/03 11:37:34;;;;;;;5.05;3.62;;;;;;;8.28;51.98;100141.63;147591;1147;104547;-76
2021/04/03 11:40:37;;;;;;;6.73;5.33;;;;;;;7.54;56.80;100191.58;147345;1147;104481;-74
2021/04/03 11:43:40;;;;;;;12.63;8.53;;;;;;;6.79;59.22;100182.16;147552;1147;104617;-75
2021/04/03 11:46:44;;;;;;;4.40;2.90;;;;;;;6.27;62.18;100192.67;147740;1147;104465;-75
2021/04/03 11:49:47;;;;;;;7.80;5.78;;;;;;;5.94;61.13;100199.73;147583;1147;104614;-77
2021/04/03 11:52:50;;;;;;;6.08;2.98;;;;;;;5.58;63.82;100208.83;147699;1147;104589;-75
2021/04/03 11:55:54;;;;;;;4.03;2.70;;;;;;;5.11;63.57;100209.80;147362;1147;104819;-76
2021/04/03 11:58:57;;;;;;;2.27;1.70;;;;;;;4.70;62.97;100211.19;147672;1148;104532;-77
2021/04/03 12:02:00;;;;;;;3.30;1.80;;;;;;;4.42;63.68;100206.30;147825;1147;104480;-75
2021/04/03 12:05:04;;;;;;;3.17;1.90;;;;;;;4.33;65.65;100205.20;147720;1147;104938;-75
2021/04/03 12:08:08;;;;;;;3.37;1.80;;;;;;;4.42;65.48;100187.80;147771;1147;104547;-75
2021/04/03 12:11:11;;;;;;;5.90;3.02;;;;;;;4.68;65.18;100189.32;147766;1147;104559;-74
2021/04/03 12:14:14;;;;;;;11.37;7.87;;;;;;;4.94;62.79;100183.83;147710;1147;104487;-74
2021/04/03 12:17:17;;;;;;;26.97;13.08;;;;;;;5.07;62.69;100171.34;147803;1147;104456;-74
2021/04/03 12:20:20;;;;;;;9.75;6.28;;;;;;;5.23;62.89;100167.48;147769;1147;104467;-73
2021/04/03 12:23:23;;;;;;;14.80;11.50;;;;;;;5.26;63.20;100157.51;147693;1147;104491;-76
2021/04/03 12:26:26;;;;;;;7.22;5.83;;;;;;;5.32;62.76;100161.48;147691;1146;104479;-74
2021/04/03 12:29:30;;;;;;;11.07;5.87;;;;;;;5.42;62.84;100156.29;147758;1147;104623;-74
2021/04/03 12:32:33;;;;;;;13.10;5.63;;;;;;;5.57;61.47;100154.23;147658;1146;104484;-74
2021/04/03 12:35:37;;;;;;;4.35;2.10;;;;;;;5.63;61.77;100148.44;147725;1147;104550;-77
2021/04/03 12:38:40;;;;;;;3.00;1.73;;;;;;;5.85;61.13;100153.68;147659;1147;104550;-76
2021/04/03 12:41:43;;;;;;;45.85;18.12;;;;;;;6.08;61.11;100148.31;147762;1147;104514;-74
2021/04/03 12:44:46;;;;;;;12.35;5.30;;;;;;;6.26;59.96;100151.27;147798;1147;104540;-75
2021/04/03 12:47:49;;;;;;;4.15;2.12;;;;;;;6.32;59.14;100156.05;147674;1147;104454;-77
2021/04/03 12:50:53;;;;;;;5.83;2.80;;;;;;;6.41;59.39;100157.06;147773;1147;104429;-74
2021/04/03 12:53:56;;;;;;;24.15;11.43;;;;;;;6.54;59.47;100146.28;147712;1147;104537;-75
2021/04/03 12:56:59;;;;;;;5.17;3.02;;;;;;;6.62;59.17;100146.47;147792;1147;105091;-76
2021/04/03 13:00:03;;;;;;;12.43;4.43;;;;;;;6.81;59.38;100143.09;147752;1147;104626;-77
2021/04/03 13:03:07;;;;;;;4.83;2.25;;;;;;;6.97;58.70;100142.63;147801;1147;104546;-76
2021/04/03 13:06:10;;;;;;;3.17;1.60;;;;;;;7.10;57.10;100150.34;147780;1147;104946;-74
2021/04/03 13:09:13;;;;;;;4.20;2.47;;;;;;;7.26;57.09;100142.74;147746;1147;104562;-74
2021/04/03 13:12:16;;;;;;;5.50;2.97;;;;;;;7.61;57.33;100138.78;147809;1147;104460;-74
2021/04/03 13:15:20;;;;;;;3.67;2.00;;;;;;;7.78;55.14;100138.11;147871;1147;104665;-73
2021/04/03 13:18:23;;;;;;;7.73;3.63;;;;;;;7.99;56.68;100143.30;147604;1147;104538;-73
2021/04/03 13:21:27;;;;;;;3.87;2.00;;;;;;;8.17;54.92;100137.28;147702;1147;104591;-75
2021/04/03 13:24:30;;;;;;;11.90;5.90;;;;;;;8.27;55.89;100140.77;147778;1147;104479;-74
2021/04/03 13:27:33;;;;;;;18.17;2.33;;;;;;;8.09;54.50;100161.91;147793;1147;105045;-74
2021/04/03 13:30:36;;;;;;;6.87;5.25;;;;;;;7.50;57.45;100174.23;147774;1147;104600;-74
2021/04/03 13:33:39;;;;;;;7.15;5.40;;;;;;;6.73;59.14;100195.95;147600;1147;104486;-74
2021/04/03 13:36:42;;;;;;;3.50;2.50;;;;;;;6.18;60.60;100198.73;147759;1147;104470;-75
2021/04/03 13:39:46;;;;;;;3.42;2.33;;;;;;;5.72;64.27;100211.23;147738;1148;104455;-74
2021/04/03 13:42:49;;;;;;;6.22;3.35;;;;;;;5.28;65.12;100215.59;147733;1147;104549;-74
2021/04/03 13:45:52;;;;;;;6.35;3.80;;;;;;;5.08;66.37;100202.13;147431;1147;104626;-76
2021/04/03 13:48:55;;;;;;;6.90;4.27;;;;;;;4.95;66.16;100217.25;147666;1147;104530;-75
2021/04/03 13:51:58;;;;;;;4.80;3.22;;;;;;;4.97;63.98;100204.75;147778;1147;104544;-73
2021/04/03 13:55:02;;;;;;;5.05;2.77;;;;;;;5.11;63.28;100193.94;147581;1146;104527;-73
2021/04/03 13:58:05;;;;;;;4.80;3.00;;;;;;;5.49;63.00;100192.73;147687;1147;104460;-75
2021/04/03 14:01:08;;;;;;;9.35;5.12;;;;;;;5.78;62.33;100189.55;147530;1147;104626;-73
2021/04/03 14:04:12;;;;;;;7.33;4.28;;;;;;;5.97;62.35;100186.30;147503;1147;104518;-72
2021/04/03 14:07:15;;;;;;;18.43;13.73;;;;;;;6.13;62.40;100183.22;147511;1147;104550;-74